sensor_id;sensor_type;location;lat;lon;timestamp;P1;durP1;ratioP1;P2;durP2;ratioP2
12412;SDS011;13877;18.896;-99.222;2023-10-13T00:02:03;10.05;;;4.03;;
12412;SDS011;13877;18.896;-99.222;2023-10-13T00:04:31;10.02;;;3.92;;
12412;SDS011;13877;18.896;-99.222;2023-10-13T00:07:01;8.35;;;3.72;;
12412;SDS011;13877;18.896;-99.222;2023-10-13T00:09:30;11.80;;;3.50;;
12412;SDS011;13877;18.896;-99.222;2023-10-13T00:12:06;5.63;;;3.63;;
12412;SDS011;13877;18.896;-99.222;2023-10-13T00:14:41;9.48;;;3.70;;
12412;SDS011;13877;18.896;-99.222;2023-10-13T00:17:11;12.23;;;3.63;;
12412;SDS011;13877;18.896;-99.222;2023-10-13T00:19:52;13.20;;;4.00;;
12412;SDS011;13877;18.896;-99.222;2023-10-13T00:22:20;12.20;;;4.00;;
12412;SDS011;13877;18.896;-99.222;2023-10-13T00:24:48;17.00;;;4.03;;
12412;SDS011;13877;18.896;-99.222;2023-10-13T00:27:29;11.33;;;3.97;;
12412;SDS011;13877;18.896;-99.222;2023-10-13T00:30:03;9.18;;;3.88;;
12412;SDS011;13877;18.896;-99.222;2023-10-13T00:32:52;18.98;;;4.97;;
12412;SDS011;13877;18.896;-99.222;2023-10-13T00:35:23;20.42;;;4.82;;
12412;SDS011;13877;18.896;-99.222;2023-10-13T00:37:51;36.97;;;7.00;;
12412;SDS011;13877;18.896;-99.222;2023-10-13T00:40:21;17.25;;;5.35;;
12412;SDS011;13877;18.896;-99.222;2023-10-13T00:42:58;18.70;;;5.05;;
12412;SDS011;13877;18.896;-99.222;2023-10-13T00:48:32;12.20;;;4.35;;
12412;SDS011;13877;18.896;-99.222;2023-10-13T00:51:08;12.23;;;4.50;;
12412;SDS011;13877;18.896;-99.222;2023-10-13T00:53:55;17.73;;;4.90;;
12412;SDS011;13877;18.896;-99.222;2023-10-13T00:56:24;14.05;;;4.68;;
12412;SDS011;13877;18.896;-99.222;2023-10-13T00:58:53;18.05;;;5.82;;
12412;SDS011;13877;18.896;-99.222;2023-10-13T01:01:23;9.20;;;4.73;;
12412;SDS011;13877;18.896;-99.222;2023-10-13T01:04:00;19.55;;;5.28;;
12412;SDS011;13877;18.896;-99.222;2023-10-13T01:06:38;24.13;;;5.53;;
12412;SDS011;13877;18.896;-99.222;2023-10-13T01:09:10;22.17;;;4.93;;
12412;SDS011;13877;18.896;-99.222;2023-10-13T01:11:50;13.57;;;4.70;;
12412;SDS011;13877;18.896;-99.222;2023-10-13T01:14:21;10.27;;;4.93;;
12412;SDS011;13877;18.896;-99.222;2023-10-13T01:16:53;15.25;;;5.25;;
12412;SDS011;13877;18.896;-99.222;2023-10-13T01:19:21;22.35;;;5.95;;
12412;SDS011;13877;18.896;-99.222;2023-10-13T01:21:53;20.08;;;5.60;;
12412;SDS011;13877;18.896;-99.222;2023-10-13T01:24:31;16.08;;;5.45;;
12412;SDS011;13877;18.896;-99.222;2023-10-13T01:27:01;14.93;;;4.95;;
12412;SDS011;13877;18.896;-99.222;2023-10-13T01:29:44;13.45;;;4.70;;
12412;SDS011;13877;18.896;-99.222;2023-10-13T01:32:17;18.38;;;6.40;;
12412;SDS011;13877;18.896;-99.222;2023-10-13T01:34:45;14.10;;;5.22;;
12412;SDS011;13877;18.896;-99.222;2023-10-13T01:37:15;11.45;;;5.47;;
12412;SDS011;13877;18.896;-99.222;2023-10-13T01:39:45;21.38;;;5.80;;
12412;SDS011;13877;18.896;-99.222;2023-10-13T01:42:13;14.80;;;5.15;;
12412;SDS011;13877;18.896;-99.222;2023-10-13T01:44:46;11.60;;;4.47;;
12412;SDS011;13877;18.896;-99.222;2023-10-13T01:47:14;16.65;;;4.75;;
12412;SDS011;13877;18.896;-99.222;2023-10-13T01:49:43;11.70;;;4.13;;
12412;SDS011;13877;18.896;-99.222;2023-10-13T01:52:13;12.52;;;4.22;;
12412;SDS011;13877;18.896;-99.222;2023-10-13T01:54:42;10.52;;;4.18;;
12412;SDS011;13877;18.896;-99.222;2023-10-13T01:57:12;13.53;;;4.30;;
12412;SDS011;13877;18.896;-99.222;2023-10-13T02:00:05;13.23;;;4.38;;
12412;SDS011;13877;18.896;-99.222;2023-10-13T02:02:45;12.35;;;3.72;;
12412;SDS011;13877;18.896;-99.222;2023-10-13T02:05:16;19.93;;;4.93;;
12412;SDS011;13877;18.896;-99.222;2023-10-13T02:07:43;19.45;;;3.92;;
12412;SDS011;13877;18.896;-99.222;2023-10-13T02:10:11;20.02;;;4.35;;
12412;SDS011;13877;18.896;-99.222;2023-10-13T02:12:39;19.70;;;4.28;;
12412;SDS011;13877;18.896;-99.222;2023-10-13T02:15:13;13.77;;;4.20;;
12412;SDS011;13877;18.896;-99.222;2023-10-13T02:17:52;16.75;;;3.78;;
12412;SDS011;13877;18.896;-99.222;2023-10-13T02:20:39;15.18;;;3.30;;
12412;SDS011;13877;18.896;-99.222;2023-10-13T02:23:11;8.48;;;3.58;;
12412;SDS011;13877;18.896;-99.222;2023-10-13T02:25:39;9.30;;;3.38;;
12412;SDS011;13877;18.896;-99.222;2023-10-13T02:28:12;12.00;;;3.38;;
12412;SDS011;13877;18.896;-99.222;2023-10-13T02:30:41;9.65;;;3.42;;
12412;SDS011;13877;18.896;-99.222;2023-10-13T02:33:14;10.38;;;3.38;;
12412;SDS011;13877;18.896;-99.222;2023-10-13T02:35:48;6.78;;;2.90;;
12412;SDS011;13877;18.896;-99.222;2023-10-13T02:38:23;13.52;;;3.22;;
12412;SDS011;13877;18.896;-99.222;2023-10-13T02:41:12;13.00;;;3.05;;
12412;SDS011;13877;18.896;-99.222;2023-10-13T02:43:55;7.70;;;3.50;;
12412;SDS011;13877;18.896;-99.222;2023-10-13T02:46:23;12.90;;;3.38;;
12412;SDS011;13877;18.896;-99.222;2023-10-13T02:48:55;13.43;;;3.80;;
12412;SDS011;13877;18.896;-99.222;2023-10-13T02:51:36;12.23;;;3.15;;
12412;SDS011;13877;18.896;-99.222;2023-10-13T02:54:09;7.72;;;3.17;;
12412;SDS011;13877;18.896;-99.222;2023-10-13T02:56:44;9.55;;;3.50;;
12412;SDS011;13877;18.896;-99.222;2023-10-13T02:59:25;12.00;;;3.33;;
12412;SDS011;13877;18.896;-99.222;2023-10-13T03:02:25;9.70;;;3.67;;
12412;SDS011;13877;18.896;-99.222;2023-10-13T03:04:56;16.73;;;2.90;;
12412;SDS011;13877;18.896;-99.222;2023-10-13T03:07:35;10.63;;;3.10;;
12412;SDS011;13877;18.896;-99.222;2023-10-13T03:10:02;9.48;;;3.20;;
12412;SDS011;13877;18.896;-99.222;2023-10-13T03:12:38;7.47;;;2.80;;
12412;SDS011;13877;18.896;-99.222;2023-10-13T03:15:08;7.35;;;2.53;;
12412;SDS011;13877;18.896;-99.222;2023-10-13T03:17:47;14.10;;;3.17;;
12412;SDS011;13877;18.896;-99.222;2023-10-13T03:20:15;5.00;;;2.22;;
12412;SDS011;13877;18.896;-99.222;2023-10-13T03:22:59;7.10;;;2.53;;
12412;SDS011;13877;18.896;-99.222;2023-10-13T03:25:26;5.60;;;2.13;;
12412;SDS011;13877;18.896;-99.222;2023-10-13T03:28:03;5.38;;;2.50;;
12412;SDS011;13877;18.896;-99.222;2023-10-13T03:30:31;7.00;;;2.15;;
12412;SDS011;13877;18.896;-99.222;2023-10-13T03:33:18;6.50;;;2.05;;
12412;SDS011;13877;18.896;-99.222;2023-10-13T03:35:52;4.47;;;1.92;;
12412;SDS011;13877;18.896;-99.222;2023-10-13T03:38:20;6.47;;;1.65;;
12412;SDS011;13877;18.896;-99.222;2023-10-13T03:40:53;5.40;;;1.80;;
12412;SDS011;13877;18.896;-99.222;2023-10-13T03:43:43;5.25;;;2.00;;
12412;SDS011;13877;18.896;-99.222;2023-10-13T03:46:18;11.73;;;3.20;;
12412;SDS011;13877;18.896;-99.222;2023-10-13T03:48:47;7.55;;;2.20;;
12412;SDS011;13877;18.896;-99.222;2023-10-13T03:51:22;8.35;;;2.38;;
12412;SDS011;13877;18.896;-99.222;2023-10-13T03:53:57;8.55;;;2.35;;
12412;SDS011;13877;18.896;-99.222;2023-10-13T03:56:24;5.15;;;2.38;;
12412;SDS011;13877;18.896;-99.222;2023-10-13T03:58:57;7.10;;;2.45;;
12412;SDS011;13877;18.896;-99.222;2023-10-13T04:01:44;8.77;;;2.30;;
12412;SDS011;13877;18.896;-99.222;2023-10-13T04:04:18;7.28;;;2.40;;
12412;SDS011;13877;18.896;-99.222;2023-10-13T04:07:08;8.05;;;1.98;;
12412;SDS011;13877;18.896;-99.222;2023-10-13T04:09:35;6.18;;;2.20;;
12412;SDS011;13877;18.896;-99.222;2023-10-13T04:12:05;7.05;;;2.22;;
12412;SDS011;13877;18.896;-99.222;2023-10-13T04:14:40;11.13;;;2.42;;
12412;SDS011;13877;18.896;-99.222;2023-10-13T04:17:27;7.30;;;2.30;;
12412;SDS011;13877;18.896;-99.222;2023-10-13T04:19:57;4.40;;;2.40;;
12412;SDS011;13877;18.896;-99.222;2023-10-13T04:22:35;11.70;;;3.08;;
12412;SDS011;13877;18.896;-99.222;2023-10-13T04:28:05;10.75;;;3.35;;
12412;SDS011;13877;18.896;-99.222;2023-10-13T04:30:43;4.72;;;2.47;;
12412;SDS011;13877;18.896;-99.222;2023-10-13T04:33:19;7.75;;;2.28;;
12412;SDS011;13877;18.896;-99.222;2023-10-13T04:38:52;13.27;;;2.28;;
12412;SDS011;13877;18.896;-99.222;2023-10-13T04:41:24;10.05;;;2.72;;
12412;SDS011;13877;18.896;-99.222;2023-10-13T04:43:58;8.05;;;2.90;;
12412;SDS011;13877;18.896;-99.222;2023-10-13T04:46:31;10.15;;;2.30;;
12412;SDS011;13877;18.896;-99.222;2023-10-13T04:49:29;7.50;;;2.78;;
12412;SDS011;13877;18.896;-99.222;2023-10-13T04:52:10;8.85;;;3.00;;
12412;SDS011;13877;18.896;-99.222;2023-10-13T04:54:38;6.55;;;2.95;;
12412;SDS011;13877;18.896;-99.222;2023-10-13T04:57:14;8.90;;;3.50;;
12412;SDS011;13877;18.896;-99.222;2023-10-13T05:00:06;17.83;;;4.20;;
12412;SDS011;13877;18.896;-99.222;2023-10-13T05:02:37;16.48;;;4.45;;
12412;SDS011;13877;18.896;-99.222;2023-10-13T05:05:21;11.70;;;4.10;;
12412;SDS011;13877;18.896;-99.222;2023-10-13T05:07:51;14.27;;;4.18;;
12412;SDS011;13877;18.896;-99.222;2023-10-13T05:10:37;13.55;;;3.58;;
12412;SDS011;13877;18.896;-99.222;2023-10-13T05:13:22;11.70;;;3.90;;
12412;SDS011;13877;18.896;-99.222;2023-10-13T05:16:08;12.98;;;4.07;;
12412;SDS011;13877;18.896;-99.222;2023-10-13T05:18:54;9.23;;;4.63;;
12412;SDS011;13877;18.896;-99.222;2023-10-13T05:21:39;15.45;;;3.95;;
12412;SDS011;13877;18.896;-99.222;2023-10-13T05:24:24;11.25;;;4.20;;
12412;SDS011;13877;18.896;-99.222;2023-10-13T05:27:10;8.18;;;3.83;;
12412;SDS011;13877;18.896;-99.222;2023-10-13T05:29:55;12.18;;;4.00;;
12412;SDS011;13877;18.896;-99.222;2023-10-13T05:32:40;10.45;;;4.20;;
12412;SDS011;13877;18.896;-99.222;2023-10-13T05:35:26;14.80;;;4.47;;
12412;SDS011;13877;18.896;-99.222;2023-10-13T05:38:11;12.10;;;4.65;;
12412;SDS011;13877;18.896;-99.222;2023-10-13T05:41:00;10.30;;;4.30;;
12412;SDS011;13877;18.896;-99.222;2023-10-13T05:43:49;11.55;;;4.18;;
12412;SDS011;13877;18.896;-99.222;2023-10-13T05:46:35;9.75;;;4.35;;
12412;SDS011;13877;18.896;-99.222;2023-10-13T05:49:06;7.70;;;4.05;;
12412;SDS011;13877;18.896;-99.222;2023-10-13T05:51:57;10.18;;;4.95;;
12412;SDS011;13877;18.896;-99.222;2023-10-13T05:54:33;16.90;;;4.45;;
12412;SDS011;13877;18.896;-99.222;2023-10-13T05:57:18;14.30;;;3.95;;
12412;SDS011;13877;18.896;-99.222;2023-10-13T06:00:03;13.43;;;4.63;;
12412;SDS011;13877;18.896;-99.222;2023-10-13T06:02:49;8.13;;;4.68;;
12412;SDS011;13877;18.896;-99.222;2023-10-13T06:05:34;10.32;;;4.05;;
12412;SDS011;13877;18.896;-99.222;2023-10-13T06:08:20;7.13;;;3.60;;
12412;SDS011;13877;18.896;-99.222;2023-10-13T06:11:05;8.77;;;3.35;;
12412;SDS011;13877;18.896;-99.222;2023-10-13T06:13:50;12.10;;;3.50;;
12412;SDS011;13877;18.896;-99.222;2023-10-13T06:16:36;19.60;;;3.88;;
12412;SDS011;13877;18.896;-99.222;2023-10-13T06:19:21;5.97;;;3.33;;
12412;SDS011;13877;18.896;-99.222;2023-10-13T06:22:06;8.65;;;3.30;;
12412;SDS011;13877;18.896;-99.222;2023-10-13T06:24:51;9.55;;;3.45;;
12412;SDS011;13877;18.896;-99.222;2023-10-13T06:27:37;5.90;;;3.10;;
12412;SDS011;13877;18.896;-99.222;2023-10-13T06:30:22;9.88;;;3.17;;
12412;SDS011;13877;18.896;-99.222;2023-10-13T06:32:49;9.80;;;3.10;;
12412;SDS011;13877;18.896;-99.222;2023-10-13T06:35:17;11.55;;;3.20;;
12412;SDS011;13877;18.896;-99.222;2023-10-13T06:37:50;10.98;;;3.38;;
12412;SDS011;13877;18.896;-99.222;2023-10-13T06:40:18;8.45;;;3.17;;
12412;SDS011;13877;18.896;-99.222;2023-10-13T06:42:57;7.43;;;2.88;;
12412;SDS011;13877;18.896;-99.222;2023-10-13T06:45:40;5.50;;;2.83;;
12412;SDS011;13877;18.896;-99.222;2023-10-13T06:48:08;10.07;;;3.35;;
12412;SDS011;13877;18.896;-99.222;2023-10-13T06:50:41;5.97;;;2.38;;
12412;SDS011;13877;18.896;-99.222;2023-10-13T06:53:15;7.47;;;3.10;;
12412;SDS011;13877;18.896;-99.222;2023-10-13T06:55:42;8.52;;;2.67;;
12412;SDS011;13877;18.896;-99.222;2023-10-13T06:58:13;7.88;;;2.72;;
12412;SDS011;13877;18.896;-99.222;2023-10-13T07:00:40;7.05;;;2.95;;
12412;SDS011;13877;18.896;-99.222;2023-10-13T07:03:19;15.52;;;2.90;;
12412;SDS011;13877;18.896;-99.222;2023-10-13T07:05:46;8.70;;;3.53;;
12412;SDS011;13877;18.896;-99.222;2023-10-13T07:08:14;9.20;;;2.65;;
12412;SDS011;13877;18.896;-99.222;2023-10-13T07:10:55;8.52;;;2.60;;
12412;SDS011;13877;18.896;-99.222;2023-10-13T07:13:29;16.17;;;3.28;;
12412;SDS011;13877;18.896;-99.222;2023-10-13T07:15:56;7.70;;;2.75;;
12412;SDS011;13877;18.896;-99.222;2023-10-13T07:18:31;10.27;;;2.85;;
12412;SDS011;13877;18.896;-99.222;2023-10-13T07:21:03;6.25;;;2.67;;
12412;SDS011;13877;18.896;-99.222;2023-10-13T07:23:36;10.50;;;3.03;;
12412;SDS011;13877;18.896;-99.222;2023-10-13T07:26:04;19.00;;;2.78;;
12412;SDS011;13877;18.896;-99.222;2023-10-13T07:28:35;7.25;;;2.97;;
12412;SDS011;13877;18.896;-99.222;2023-10-13T07:31:02;6.50;;;3.10;;
12412;SDS011;13877;18.896;-99.222;2023-10-13T07:33:29;5.70;;;2.80;;
12412;SDS011;13877;18.896;-99.222;2023-10-13T07:36:01;6.00;;;2.58;;
12412;SDS011;13877;18.896;-99.222;2023-10-13T07:38:52;6.57;;;2.97;;
12412;SDS011;13877;18.896;-99.222;2023-10-13T07:41:45;6.07;;;2.80;;
12412;SDS011;13877;18.896;-99.222;2023-10-13T07:44:41;8.27;;;2.75;;
12412;SDS011;13877;18.896;-99.222;2023-10-13T07:47:14;10.40;;;2.72;;
12412;SDS011;13877;18.896;-99.222;2023-10-13T07:49:43;9.13;;;3.03;;
12412;SDS011;13877;18.896;-99.222;2023-10-13T07:52:14;8.25;;;2.40;;
12412;SDS011;13877;18.896;-99.222;2023-10-13T07:54:48;11.82;;;2.50;;
12412;SDS011;13877;18.896;-99.222;2023-10-13T07:57:36;4.38;;;2.60;;
12412;SDS011;13877;18.896;-99.222;2023-10-13T08:00:20;9.52;;;2.90;;
12412;SDS011;13877;18.896;-99.222;2023-10-13T08:03:06;5.93;;;2.90;;
12412;SDS011;13877;18.896;-99.222;2023-10-13T08:05:43;7.85;;;2.78;;
12412;SDS011;13877;18.896;-99.222;2023-10-13T08:08:29;7.53;;;2.78;;
12412;SDS011;13877;18.896;-99.222;2023-10-13T08:11:20;7.93;;;2.58;;
12412;SDS011;13877;18.896;-99.222;2023-10-13T08:13:59;36.38;;;2.88;;
12412;SDS011;13877;18.896;-99.222;2023-10-13T08:16:38;8.65;;;2.75;;
12412;SDS011;13877;18.896;-99.222;2023-10-13T08:19:15;11.88;;;2.63;;
12412;SDS011;13877;18.896;-99.222;2023-10-13T08:21:44;7.55;;;2.85;;
12412;SDS011;13877;18.896;-99.222;2023-10-13T08:24:18;10.07;;;3.15;;
12412;SDS011;13877;18.896;-99.222;2023-10-13T08:26:55;7.88;;;3.38;;
12412;SDS011;13877;18.896;-99.222;2023-10-13T08:29:23;10.15;;;2.95;;
12412;SDS011;13877;18.896;-99.222;2023-10-13T08:31:54;9.70;;;3.10;;
12412;SDS011;13877;18.896;-99.222;2023-10-13T08:34:30;7.18;;;3.10;;
12412;SDS011;13877;18.896;-99.222;2023-10-13T08:37:27;21.40;;;2.92;;
12412;SDS011;13877;18.896;-99.222;2023-10-13T08:40:00;3.47;;;2.60;;
12412;SDS011;13877;18.896;-99.222;2023-10-13T08:45:07;7.65;;;3.20;;
12412;SDS011;13877;18.896;-99.222;2023-10-13T08:47:55;8.75;;;3.00;;
12412;SDS011;13877;18.896;-99.222;2023-10-13T08:56:01;9.23;;;2.63;;
12412;SDS011;13877;18.896;-99.222;2023-10-13T08:58:49;7.75;;;2.65;;
12412;SDS011;13877;18.896;-99.222;2023-10-13T09:01:29;10.32;;;2.78;;
12412;SDS011;13877;18.896;-99.222;2023-10-13T09:04:16;12.10;;;3.00;;
12412;SDS011;13877;18.896;-99.222;2023-10-13T09:06:45;6.07;;;2.80;;
12412;SDS011;13877;18.896;-99.222;2023-10-13T09:09:13;7.00;;;2.40;;
12412;SDS011;13877;18.896;-99.222;2023-10-13T09:12:01;10.85;;;2.92;;
12412;SDS011;13877;18.896;-99.222;2023-10-13T09:14:37;8.75;;;2.60;;
12412;SDS011;13877;18.896;-99.222;2023-10-13T09:17:10;8.93;;;3.17;;
12412;SDS011;13877;18.896;-99.222;2023-10-13T09:19:59;13.20;;;3.30;;
12412;SDS011;13877;18.896;-99.222;2023-10-13T09:22:59;6.35;;;2.55;;
12412;SDS011;13877;18.896;-99.222;2023-10-13T09:25:37;14.45;;;2.92;;
12412;SDS011;13877;18.896;-99.222;2023-10-13T09:28:28;6.60;;;3.00;;
12412;SDS011;13877;18.896;-99.222;2023-10-13T09:30:58;9.57;;;2.90;;
12412;SDS011;13877;18.896;-99.222;2023-10-13T09:33:25;9.70;;;2.90;;
12412;SDS011;13877;18.896;-99.222;2023-10-13T09:36:06;14.05;;;2.70;;
12412;SDS011;13877;18.896;-99.222;2023-10-13T09:38:34;8.38;;;2.50;;
12412;SDS011;13877;18.896;-99.222;2023-10-13T09:41:06;6.78;;;2.70;;
12412;SDS011;13877;18.896;-99.222;2023-10-13T09:43:52;20.65;;;3.05;;
12412;SDS011;13877;18.896;-99.222;2023-10-13T09:46:25;10.07;;;3.00;;
12412;SDS011;13877;18.896;-99.222;2023-10-13T09:49:03;6.68;;;2.67;;
12412;SDS011;13877;18.896;-99.222;2023-10-13T09:52:01;7.72;;;3.05;;
12412;SDS011;13877;18.896;-99.222;2023-10-13T09:54:34;15.60;;;3.70;;
12412;SDS011;13877;18.896;-99.222;2023-10-13T09:57:12;6.75;;;3.30;;
12412;SDS011;13877;18.896;-99.222;2023-10-13T09:59:45;8.27;;;2.85;;
12412;SDS011;13877;18.896;-99.222;2023-10-13T10:02:18;6.07;;;2.85;;
12412;SDS011;13877;18.896;-99.222;2023-10-13T10:04:56;7.53;;;3.38;;
12412;SDS011;13877;18.896;-99.222;2023-10-13T10:07:54;8.95;;;3.03;;
12412;SDS011;13877;18.896;-99.222;2023-10-13T10:10:47;8.30;;;3.53;;
12412;SDS011;13877;18.896;-99.222;2023-10-13T10:13:38;7.60;;;3.30;;
12412;SDS011;13877;18.896;-99.222;2023-10-13T10:16:17;8.18;;;2.70;;
12412;SDS011;13877;18.896;-99.222;2023-10-13T10:18:59;7.57;;;2.90;;
12412;SDS011;13877;18.896;-99.222;2023-10-13T10:21:36;9.35;;;3.42;;
12412;SDS011;13877;18.896;-99.222;2023-10-13T10:24:14;7.25;;;2.72;;
12412;SDS011;13877;18.896;-99.222;2023-10-13T10:26:56;8.40;;;3.30;;
12412;SDS011;13877;18.896;-99.222;2023-10-13T10:29:23;8.75;;;2.97;;
12412;SDS011;13877;18.896;-99.222;2023-10-13T10:31:50;7.00;;;2.85;;
12412;SDS011;13877;18.896;-99.222;2023-10-13T10:34:17;11.82;;;3.22;;
12412;SDS011;13877;18.896;-99.222;2023-10-13T10:36:46;9.70;;;3.05;;
12412;SDS011;13877;18.896;-99.222;2023-10-13T10:39:14;7.47;;;2.80;;
12412;SDS011;13877;18.896;-99.222;2023-10-13T10:41:43;5.30;;;3.00;;
12412;SDS011;13877;18.896;-99.222;2023-10-13T10:44:14;8.25;;;3.30;;
12412;SDS011;13877;18.896;-99.222;2023-10-13T10:46:42;9.25;;;2.97;;
12412;SDS011;13877;18.896;-99.222;2023-10-13T10:49:28;6.55;;;3.30;;
12412;SDS011;13877;18.896;-99.222;2023-10-13T10:52:03;6.60;;;2.88;;
12412;SDS011;13877;18.896;-99.222;2023-10-13T10:54:40;10.88;;;3.58;;
12412;SDS011;13877;18.896;-99.222;2023-10-13T10:57:11;6.10;;;2.97;;
12412;SDS011;13877;18.896;-99.222;2023-10-13T10:59:46;9.50;;;3.53;;
12412;SDS011;13877;18.896;-99.222;2023-10-13T11:02:18;10.98;;;3.00;;
12412;SDS011;13877;18.896;-99.222;2023-10-13T11:04:53;8.63;;;3.10;;
12412;SDS011;13877;18.896;-99.222;2023-10-13T11:07:22;5.57;;;2.92;;
12412;SDS011;13877;18.896;-99.222;2023-10-13T11:09:51;11.40;;;3.38;;
12412;SDS011;13877;18.896;-99.222;2023-10-13T11:15:00;11.77;;;4.53;;
12412;SDS011;13877;18.896;-99.222;2023-10-13T11:17:31;9.40;;;3.40;;
12412;SDS011;13877;18.896;-99.222;2023-10-13T11:20:24;16.77;;;4.20;;
12412;SDS011;13877;18.896;-99.222;2023-10-13T11:22:52;8.65;;;3.22;;
12412;SDS011;13877;18.896;-99.222;2023-10-13T11:25:20;10.90;;;3.22;;
12412;SDS011;13877;18.896;-99.222;2023-10-13T11:27:56;11.65;;;4.07;;
12412;SDS011;13877;18.896;-99.222;2023-10-13T11:30:26;8.55;;;3.70;;
12412;SDS011;13877;18.896;-99.222;2023-10-13T11:33:08;10.02;;;4.30;;
12412;SDS011;13877;18.896;-99.222;2023-10-13T11:35:39;6.70;;;3.97;;
12412;SDS011;13877;18.896;-99.222;2023-10-13T11:38:31;11.48;;;3.88;;
12412;SDS011;13877;18.896;-99.222;2023-10-13T11:41:08;12.60;;;4.13;;
12412;SDS011;13877;18.896;-99.222;2023-10-13T11:43:39;6.90;;;4.10;;
12412;SDS011;13877;18.896;-99.222;2023-10-13T11:48:42;19.05;;;4.90;;
12412;SDS011;13877;18.896;-99.222;2023-10-13T11:51:30;7.50;;;4.22;;
12412;SDS011;13877;18.896;-99.222;2023-10-13T11:53:58;12.30;;;4.43;;
12412;SDS011;13877;18.896;-99.222;2023-10-13T11:56:26;12.85;;;4.68;;
12412;SDS011;13877;18.896;-99.222;2023-10-13T11:58:53;9.77;;;4.90;;
12412;SDS011;13877;18.896;-99.222;2023-10-13T12:01:20;12.40;;;5.20;;
12412;SDS011;13877;18.896;-99.222;2023-10-13T12:04:07;11.88;;;5.53;;
12412;SDS011;13877;18.896;-99.222;2023-10-13T12:06:53;11.82;;;5.13;;
12412;SDS011;13877;18.896;-99.222;2023-10-13T12:09:41;10.77;;;4.90;;
12412;SDS011;13877;18.896;-99.222;2023-10-13T12:12:24;20.33;;;6.13;;
12412;SDS011;13877;18.896;-99.222;2023-10-13T12:14:53;19.63;;;6.72;;
12412;SDS011;13877;18.896;-99.222;2023-10-13T12:17:22;12.95;;;6.50;;
12412;SDS011;13877;18.896;-99.222;2023-10-13T12:19:51;16.55;;;6.50;;
12412;SDS011;13877;18.896;-99.222;2023-10-13T12:22:19;11.82;;;5.97;;
12412;SDS011;13877;18.896;-99.222;2023-10-13T12:25:02;20.55;;;7.15;;
12412;SDS011;13877;18.896;-99.222;2023-10-13T12:27:53;17.20;;;7.33;;
12412;SDS011;13877;18.896;-99.222;2023-10-13T12:30:24;18.27;;;7.07;;
12412;SDS011;13877;18.896;-99.222;2023-10-13T12:33:10;16.63;;;7.38;;
12412;SDS011;13877;18.896;-99.222;2023-10-13T12:35:40;13.27;;;7.22;;
12412;SDS011;13877;18.896;-99.222;2023-10-13T12:38:25;14.07;;;7.60;;
12412;SDS011;13877;18.896;-99.222;2023-10-13T12:41:06;16.63;;;7.85;;
12412;SDS011;13877;18.896;-99.222;2023-10-13T12:43:51;18.83;;;7.95;;
12412;SDS011;13877;18.896;-99.222;2023-10-13T12:46:36;17.17;;;7.55;;
12412;SDS011;13877;18.896;-99.222;2023-10-13T12:49:22;12.70;;;6.82;;
12412;SDS011;13877;18.896;-99.222;2023-10-13T12:52:07;17.55;;;6.97;;
12412;SDS011;13877;18.896;-99.222;2023-10-13T12:55:07;18.38;;;6.97;;
12412;SDS011;13877;18.896;-99.222;2023-10-13T12:57:35;15.18;;;6.00;;
12412;SDS011;13877;18.896;-99.222;2023-10-13T13:00:10;15.80;;;6.60;;
12412;SDS011;13877;18.896;-99.222;2023-10-13T13:02:52;11.95;;;5.55;;
12412;SDS011;13877;18.896;-99.222;2023-10-13T13:05:21;12.63;;;5.63;;
12412;SDS011;13877;18.896;-99.222;2023-10-13T13:07:54;22.52;;;6.53;;
12412;SDS011;13877;18.896;-99.222;2023-10-13T13:10:21;14.93;;;6.47;;
12412;SDS011;13877;18.896;-99.222;2023-10-13T13:13:01;19.20;;;5.80;;
12412;SDS011;13877;18.896;-99.222;2023-10-13T13:15:30;10.05;;;5.43;;
12412;SDS011;13877;18.896;-99.222;2023-10-13T13:17:57;12.93;;;5.15;;
12412;SDS011;13877;18.896;-99.222;2023-10-13T13:20:35;17.73;;;5.07;;
12412;SDS011;13877;18.896;-99.222;2023-10-13T13:23:05;12.02;;;4.88;;
12412;SDS011;13877;18.896;-99.222;2023-10-13T13:25:32;20.42;;;4.78;;
12412;SDS011;13877;18.896;-99.222;2023-10-13T13:28:01;14.40;;;5.25;;
12412;SDS011;13877;18.896;-99.222;2023-10-13T13:30:31;12.73;;;4.13;;
12412;SDS011;13877;18.896;-99.222;2023-10-13T13:33:01;8.52;;;2.67;;
12412;SDS011;13877;18.896;-99.222;2023-10-13T13:35:37;5.80;;;1.80;;
12412;SDS011;13877;18.896;-99.222;2023-10-13T13:38:09;12.05;;;3.08;;
12412;SDS011;13877;18.896;-99.222;2023-10-13T13:40:55;14.95;;;4.10;;
12412;SDS011;13877;18.896;-99.222;2023-10-13T13:43:23;12.30;;;4.53;;
12412;SDS011;13877;18.896;-99.222;2023-10-13T13:46:07;11.02;;;3.95;;
12412;SDS011;13877;18.896;-99.222;2023-10-13T13:48:38;19.90;;;3.55;;
12412;SDS011;13877;18.896;-99.222;2023-10-13T13:51:07;12.35;;;3.60;;
12412;SDS011;13877;18.896;-99.222;2023-10-13T13:53:41;12.52;;;2.67;;
12412;SDS011;13877;18.896;-99.222;2023-10-13T13:56:11;12.90;;;3.00;;
12412;SDS011;13877;18.896;-99.222;2023-10-13T14:01:12;3.45;;;2.05;;
12412;SDS011;13877;18.896;-99.222;2023-10-13T14:03:50;7.07;;;1.40;;
12412;SDS011;13877;18.896;-99.222;2023-10-13T14:06:18;2.23;;;1.50;;
12412;SDS011;13877;18.896;-99.222;2023-10-13T14:08:51;6.57;;;2.17;;
12412;SDS011;13877;18.896;-99.222;2023-10-13T14:11:26;4.03;;;1.60;;
12412;SDS011;13877;18.896;-99.222;2023-10-13T14:14:08;6.28;;;1.52;;
12412;SDS011;13877;18.896;-99.222;2023-10-13T14:16:53;9.82;;;1.98;;
12412;SDS011;13877;18.896;-99.222;2023-10-13T14:19:29;3.33;;;1.67;;
12412;SDS011;13877;18.896;-99.222;2023-10-13T14:21:56;6.15;;;1.58;;
12412;SDS011;13877;18.896;-99.222;2023-10-13T14:24:26;4.95;;;2.25;;
12412;SDS011;13877;18.896;-99.222;2023-10-13T14:27:09;8.00;;;2.38;;
12412;SDS011;13877;18.896;-99.222;2023-10-13T14:29:44;4.57;;;1.40;;
12412;SDS011;13877;18.896;-99.222;2023-10-13T14:32:12;7.07;;;1.73;;
12412;SDS011;13877;18.896;-99.222;2023-10-13T14:34:42;3.60;;;1.45;;
12412;SDS011;13877;18.896;-99.222;2023-10-13T14:37:11;4.03;;;1.45;;
12412;SDS011;13877;18.896;-99.222;2023-10-13T14:39:40;6.38;;;1.75;;
12412;SDS011;13877;18.896;-99.222;2023-10-13T14:42:08;11.43;;;2.17;;
12412;SDS011;13877;18.896;-99.222;2023-10-13T14:44:35;9.32;;;2.10;;
12412;SDS011;13877;18.896;-99.222;2023-10-13T14:47:03;3.28;;;2.17;;
12412;SDS011;13877;18.896;-99.222;2023-10-13T14:49:32;7.65;;;2.30;;
12412;SDS011;13877;18.896;-99.222;2023-10-13T14:52:01;8.82;;;2.22;;
12412;SDS011;13877;18.896;-99.222;2023-10-13T14:54:28;4.47;;;1.60;;
12412;SDS011;13877;18.896;-99.222;2023-10-13T14:57:02;17.02;;;2.30;;
12412;SDS011;13877;18.896;-99.222;2023-10-13T14:59:31;15.27;;;2.30;;
12412;SDS011;13877;18.896;-99.222;2023-10-13T15:02:04;16.95;;;2.75;;
12412;SDS011;13877;18.896;-99.222;2023-10-13T15:04:32;6.80;;;2.60;;
12412;SDS011;13877;18.896;-99.222;2023-10-13T15:07:02;8.60;;;2.20;;
12412;SDS011;13877;18.896;-99.222;2023-10-13T15:09:29;6.07;;;2.20;;
12412;SDS011;13877;18.896;-99.222;2023-10-13T15:11:57;7.95;;;2.60;;
12412;SDS011;13877;18.896;-99.222;2023-10-13T15:14:24;8.25;;;2.47;;
12412;SDS011;13877;18.896;-99.222;2023-10-13T15:16:52;12.38;;;2.70;;
12412;SDS011;13877;18.896;-99.222;2023-10-13T15:19:19;4.55;;;2.45;;
12412;SDS011;13877;18.896;-99.222;2023-10-13T15:21:49;10.15;;;2.08;;
12412;SDS011;13877;18.896;-99.222;2023-10-13T15:24:18;6.07;;;2.50;;
12412;SDS011;13877;18.896;-99.222;2023-10-13T15:26:51;15.45;;;3.42;;
12412;SDS011;13877;18.896;-99.222;2023-10-13T15:29:27;12.32;;;2.75;;
12412;SDS011;13877;18.896;-99.222;2023-10-13T15:32:01;17.70;;;2.75;;